• Join FlightAware (Why Join?)
  • Login
  • US Flag 
01:07PM EDT


 

Airport Tracker/Info


-or-


 

Live Flight TrackerFlight Track Log ✈ EGF2910 ✈ 21-Jun-2013 ✈ KBNA - KORD

Flight Track Log - Related Links

Times and Time Zones

All times are in EDT time to prevent confusion due to time zone crossing. See the EGF2910 flight status page for this flight to view local times or setup timezone preferences in your user account.

Time Position Orientation Groundspeed Altitude Reporting Facility
EDT Latitude Longitude Course Direction KTS MPH feet Rate Location/Type
08:20PM 36.0833 -86.7333 248° West 201 231 2,400  Level Nashville TRACON
08:21PM 36.1167 -86.8167 296° West 258 297 4,700 2,220 Climbing Nashville TRACON
08:22PM 36.2108 -87.0324 293° West  Level FlightAware Approximate
08:22PM 36.1667 -86.9000 307° West 268 308 7,400  Level Nashville TRACON
08:23PM 36.2503 -87.1512 287° West  Level FlightAware Approximate
08:24PM 36.2765 -87.2755 282° West  Level FlightAware Approximate
08:24PM 36.2006 -86.9928 294° West 270 311 9,400  Level Memphis Center
08:25PM 36.2892 -87.4028 278° West  Level FlightAware Approximate
08:25PM 36.2319 -87.0817 294° West 289 333 10,300  Level Memphis Center
08:26PM 36.2597 -87.1886 288° West 316 364 12,000 1,560 Climbing Memphis Center
08:27PM 36.2836 -87.3008 285° West 337 388 13,500 1,500 Climbing Memphis Center
08:28PM 36.2947 -87.4189 277° West 348 400 15,100 1,440 Climbing Memphis Center
08:29PM 36.2892 -87.5400 267° West 354 407 16,400 1,200 Climbing Memphis Center
08:30PM 36.2817 -87.6769 266° West 361 415 17,600 1,140 Climbing Memphis Center
08:31PM 36.2781 -87.8031 268° West 368 423 18,700 1,140 Climbing Memphis Center
08:32PM 36.2725 -87.9319 267° West 368 423 19,900 1,320 Climbing Memphis Center
08:33PM 36.2644 -88.0611 266° West 374 430 21,400 1,380 Climbing Memphis Center
08:34PM 36.2686 -88.1742 273° West 374 430 22,700 1,380 Climbing Memphis Center
08:35PM 36.2625 -88.3003 267° West 369 425 24,200 1,440 Climbing Memphis Center
08:36PM 36.2539 -88.4217 265° West 364 419 25,600 1,440 Climbing Memphis Center
08:37PM 36.2494 -88.5428 267° West 364 419 27,100 1,320 Climbing Memphis Center
08:38PM 36.2450 -88.6611 267° West 364 419 28,300 1,080 Climbing Memphis Center
08:39PM 36.2361 -88.7822 265° West 364 419 29,300 840 Climbing Memphis Center
08:40PM 36.2294 -88.9111 266° West 364 419 30,000 300 Climbing Memphis Center
08:41PM 36.2203 -89.0450 265° West 378 435 30,000  Level Memphis Center
08:42PM 36.2094 -89.2019 265° West 403 464 30,000  Level Memphis Center
08:43PM 36.2025 -89.3539 267° West 425 489 30,000  Level Memphis Center
08:44PM 36.1953 -89.5031 267° West 438 504 30,000  Level Memphis Center
08:45PM 36.1858 -89.6497 265° West 438 504 30,000  Level Memphis Center
08:46PM 36.1803 -89.7989 267° West 438 504 30,000  Level Memphis Center
08:47PM 36.1706 -89.9508 266° West 438 504 30,000  Level Memphis Center
08:48PM 36.1625 -90.0947 266° West 438 504 30,000  Level Memphis Center
08:49PM 36.1544 -90.2464 266° West 438 504 30,000  Level Memphis Center
08:50PM 36.1439 -90.3956 265° West 443 510 30,000  Level Memphis Center
08:51PM 36.1356 -90.5419 266° West 443 510 30,000  Level Memphis Center
08:52PM 36.1833 -90.6733 294° West 406 467 30,000  Level Memphis Center
08:53PM 36.2853 -90.7303 336° Northwest 373 429 30,000  Level Memphis Center
08:54PM 36.4039 -90.7464 354° North 378 435 30,000  Level Memphis Center
08:55PM 36.5208 -90.7572 356° North 395 455 30,000  Level Memphis Center
08:56PM 36.6269 -90.7681 355° North 408 470 30,000  Level Memphis Center
08:57PM 36.7436 -90.7817 355° North 418 481 30,000  Level Memphis Center
08:59PM 36.9769 -90.7986 357° North 426 490 30,000  Level Kansas City Center
09:00PM 37.1106 -90.8100 356° North 428 493 30,000  Level Kansas City Center
09:01PM 37.2289 -90.8217 356° North 426 490 30,000  Level Kansas City Center
09:02PM 37.3464 -90.8336 355° North 425 489 30,000  Level Kansas City Center
09:03PM 37.4639 -90.8467 355° North 424 488 30,000  Level Kansas City Center
09:04PM 37.5817 -90.8583 356° North 424 488 30,000  Level Kansas City Center
09:05PM 37.7022 -90.8689 356° North 427 491 30,000  Level Kansas City Center
09:06PM 37.8211 -90.8822 355° North 428 493 30,000  Level Kansas City Center
09:07PM 37.9406 -90.8942 355° North 429 494 30,000  Level Kansas City Center
09:08PM 38.0839 -90.9094 355° North 429 494 30,000  Level Kansas City Center
09:09PM 38.2028 -90.9219 355° North 428 493 30,000  Level Kansas City Center
09:10PM 38.3231 -90.9333 356° North 430 495 30,000  Level Kansas City Center
09:11PM 38.4431 -90.9456 355° North 430 495 30,000  Level Kansas City Center
09:12PM 38.5633 -90.9586 355° North 430 495 30,000  Level Kansas City Center
09:13PM 38.6836 -90.9681 356° North 431 496 30,000  Level Kansas City Center
09:14PM 38.7981 -90.9181 19° North 430 495 30,000  Level Kansas City Center
09:15PM 38.9328 -90.8439 23° Northeast 434 499 30,000  Level Kansas City Center
09:16PM 39.0458 -90.7831 23° Northeast 437 503 30,000  Level Kansas City Center
09:17PM 39.1600 -90.7219 23° Northeast 439 505 30,000  Level Kansas City Center
09:18PM 39.2736 -90.6578 24° Northeast 443 510 30,000  Level Kansas City Center
09:19PM 39.3919 -90.6433 North 430 495 30,000  Level Kansas City Center
09:20PM 39.5117 -90.6633 353° North 432 497 30,000  Level Kansas City Center
09:21PM 39.6308 -90.6839 352° North 432 497 30,000  Level Kansas City Center
09:22PM 39.7733 -90.7072 353° North 433 498 30,000  Level Kansas City Center
09:23PM 39.8931 -90.7269 353° North 433 498 30,000  Level Kansas City Center
09:24PM 40.0125 -90.7469 353° North 432 497 30,000 -240 Level Kansas City Center
09:25PM 40.1264 -90.6936 20° North 442 509 29,600 -480 Descending Kansas City Center
09:26PM 40.2281 -90.5919 37° Northeast 456 525 29,100 -300 Descending Kansas City Center
09:27PM 40.3275 -90.4850 39° Northeast 460 529 29,000 -60 Descending Kansas City Center
09:28PM 40.4256 -90.3783 40° Northeast 459 528 29,000  Level Kansas City Center
09:30PM 40.5442 -90.2542 38° Northeast 454 522 29,000  Level Kansas City Center
09:31PM 40.6297 -90.1625 39° Northeast 453 521 29,000  Level Kansas City Center
09:32PM 40.7261 -90.0600 39° Northeast 451 519 29,000  Level Kansas City Center
09:33PM 40.8419 -89.9350 39° Northeast 454 522 29,000 -480 Level Kansas City Center
09:34PM 40.9586 -89.8083 39° Northeast 454 522 27,900 -1,500 Descending Chicago Center
09:35PM 41.0619 -89.6961 39° Northeast 462 532 25,600 -1,920 Descending Chicago Center
09:36PM 41.1592 -89.5869 40° Northeast 458 527 24,000 -1,560 Descending Chicago Center
09:37PM 41.2192 -89.4458 60° Northeast 432 497 22,400 -2,160 Descending Chicago Center
09:38PM 41.2858 -89.2775 62° Northeast 428 493 19,600 -2,400 Descending Chicago Center
09:39PM 41.3358 -89.1528 62° Northeast 416 479 17,500 -2,160 Descending Chicago Center
09:40PM 41.3858 -89.0253 62° Northeast 395 455 15,200 -2,340 Descending Chicago Center
09:41PM 41.4442 -88.8811 62° Northeast 372 428 12,800 -1,920 Descending Chicago Center
09:42PM 41.4897 -88.7625 63° Northeast 363 418 11,300 -900 Descending Chicago Center
09:43PM 41.5319 -88.6569 62° Northeast 329 379 11,000 -180 Descending Chicago Center
09:44PM 41.5719 -88.5564 62° Northeast 311 358 11,000 -300 Level Chicago Center
09:45PM 41.6150 -88.4519 61° Northeast 321 369 10,400 -900 Descending Chicago Center
09:46PM 41.6822 -88.3894 35° Northeast 301 346 9,200 -1,320 Descending Chicago Center
09:47PM 41.7514 -88.3314 32° Northeast 295 339 7,800 -1,080 Descending Chicago Center
09:48PM 41.8353 -88.2697 29° Northeast 290 334 7,000 -840 Descending Chicago Center
09:49PM 41.9086 -88.2297 22° Northeast 287 330 6,100 -840 Descending Chicago Center
09:50PM 41.9644 -88.1814 33° Northeast 260 299 5,400 -720 Descending Chicago Center